createdAt,value
2023-04-07T00:02:16.553Z,8.30
2023-04-07T00:04:44.945Z,8.30
2023-04-07T00:07:12.993Z,8.40
2023-04-07T00:09:41.253Z,8.30
2023-04-07T00:12:09.269Z,8.40
2023-04-07T00:14:37.317Z,8.40
2023-04-07T00:17:06.955Z,8.50
2023-04-07T00:19:35.811Z,8.50
2023-04-07T00:22:04.107Z,8.50
2023-04-07T00:24:34.680Z,8.50
2023-04-07T00:27:03.602Z,8.60
2023-04-07T00:29:32.067Z,8.60
2023-04-07T00:32:00.288Z,8.60
2023-04-07T00:34:29.672Z,8.70
2023-04-07T00:36:57.668Z,8.60
2023-04-07T00:39:27.529Z,8.70
2023-04-07T00:41:56.637Z,8.70
2023-04-07T00:44:24.707Z,8.70
2023-04-07T00:46:53.086Z,8.80
2023-04-07T00:49:21.876Z,8.70
2023-04-07T00:51:51.349Z,8.80
2023-04-07T00:54:19.707Z,8.80
2023-04-07T00:56:47.934Z,8.70
2023-04-07T00:59:16.050Z,8.80
2023-04-07T01:01:47.822Z,8.70
2023-04-07T01:04:24.431Z,8.80
2023-04-07T01:06:57.422Z,8.70
2023-04-07T01:09:38.794Z,8.70
2023-04-07T01:12:13.689Z,8.70
2023-04-07T01:14:48.655Z,8.70
2023-04-07T01:17:35.831Z,8.70
2023-04-07T01:20:08.321Z,8.70
2023-04-07T01:22:44.503Z,8.70
2023-04-07T01:25:44.824Z,8.70
2023-04-07T01:28:29.570Z,8.70
2023-04-07T01:31:01.085Z,8.60
2023-04-07T01:33:32.382Z,8.70
2023-04-07T01:36:02.111Z,8.70
2023-04-07T01:38:31.006Z,8.60
2023-04-07T01:41:00.480Z,8.70
2023-04-07T01:43:29.714Z,8.70
2023-04-07T01:46:00.477Z,8.70
2023-04-07T01:48:29.128Z,8.70
2023-04-07T01:50:57.725Z,8.70
2023-04-07T01:53:26.739Z,8.70
2023-04-07T01:55:55.563Z,8.70
2023-04-07T01:58:23.642Z,8.70
2023-04-07T02:00:51.772Z,8.70
2023-04-07T02:03:31.854Z,8.70
2023-04-07T02:06:07.801Z,8.60
2023-04-07T02:08:43.589Z,8.70
2023-04-07T02:11:13.964Z,8.60
2023-04-07T02:13:43.532Z,8.70
2023-04-07T02:16:14.803Z,8.70
2023-04-07T02:18:47.062Z,8.70
2023-04-07T02:21:16.570Z,8.70
2023-04-07T02:23:47.482Z,8.70
2023-04-07T02:26:15.540Z,8.70
2023-04-07T02:28:43.633Z,8.70
2023-04-07T02:31:13.771Z,8.70
2023-04-07T02:33:41.836Z,8.70
2023-04-07T02:36:11.159Z,8.60
2023-04-07T02:38:39.138Z,8.60
2023-04-07T02:41:07.439Z,8.60
2023-04-07T02:43:35.433Z,8.60
2023-04-07T02:46:03.489Z,8.60
2023-04-07T02:48:31.505Z,8.50
2023-04-07T02:51:00.199Z,8.50
2023-04-07T02:53:29.518Z,8.50
2023-04-07T02:55:57.658Z,8.50
2023-04-07T02:58:25.777Z,8.50
2023-04-07T03:00:53.859Z,8.50
2023-04-07T03:03:24.651Z,8.50
2023-04-07T03:06:10.758Z,8.50
2023-04-07T03:08:49.492Z,8.40
2023-04-07T03:11:17.526Z,8.50
2023-04-07T03:13:46.117Z,8.40
2023-04-07T03:16:16.088Z,8.40
2023-04-07T03:18:57.601Z,8.40
2023-04-07T03:21:25.757Z,8.40
2023-04-07T03:23:55.573Z,8.40
2023-04-07T03:26:24.118Z,8.40
2023-04-07T03:28:52.634Z,8.40
2023-04-07T03:31:21.405Z,8.40
2023-04-07T03:33:52.187Z,8.40
2023-04-07T03:36:21.497Z,8.40
2023-04-07T03:38:49.887Z,8.40
2023-04-07T03:41:21.008Z,8.40
2023-04-07T03:43:48.979Z,8.30
2023-04-07T03:46:17.040Z,8.30
2023-04-07T03:48:45.518Z,8.30
2023-04-07T03:51:13.626Z,8.30
2023-04-07T03:53:42.011Z,8.30
2023-04-07T03:56:29.124Z,8.20
2023-04-07T03:58:59.276Z,8.20
2023-04-07T04:01:34.590Z,8.10
2023-04-07T04:04:09.204Z,8.20
2023-04-07T04:06:37.328Z,8.20
2023-04-07T04:09:14.425Z,8.20
2023-04-07T04:11:47.979Z,8.20
2023-04-07T04:14:17.246Z,8.20
2023-04-07T04:16:51.528Z,8.20
2023-04-07T04:19:36.122Z,8.20
2023-04-07T04:22:12.323Z,8.20
2023-04-07T04:24:49.459Z,8.30
2023-04-07T04:27:18.796Z,8.20
2023-04-07T04:29:52.528Z,8.20
2023-04-07T04:32:27.197Z,8.20
2023-04-07T04:34:55.319Z,8.10
2023-04-07T04:37:24.102Z,8.10
2023-04-07T04:39:52.065Z,8.10
2023-04-07T04:42:26.303Z,8.10
2023-04-07T04:44:55.849Z,8.10
2023-04-07T04:47:24.137Z,8.10
2023-04-07T04:49:52.361Z,8.10
2023-04-07T04:52:21.754Z,8.10
2023-04-07T04:54:51.528Z,8.10
2023-04-07T04:57:20.310Z,8.10
2023-04-07T04:59:50.685Z,8.10
2023-04-07T05:02:18.842Z,8.10
2023-04-07T05:04:47.084Z,8.00
2023-04-07T05:07:25.592Z,8.00
2023-04-07T05:09:53.756Z,8.10
2023-04-07T05:12:22.943Z,8.00
2023-04-07T05:14:59.126Z,8.00
2023-04-07T05:17:27.292Z,8.00
2023-04-07T05:19:55.733Z,8.00
2023-04-07T05:22:34.318Z,8.00
2023-04-07T05:25:03.192Z,8.00
2023-04-07T05:27:31.222Z,8.00
2023-04-07T05:30:06.442Z,8.00
2023-04-07T05:32:36.200Z,8.00
2023-04-07T05:35:11.427Z,8.00
2023-04-07T05:37:45.394Z,8.00
2023-04-07T05:40:13.906Z,8.00
2023-04-07T05:42:42.007Z,8.00
2023-04-07T05:45:12.750Z,8.00
2023-04-07T05:47:43.972Z,8.00
2023-04-07T05:50:14.085Z,8.10
2023-04-07T05:52:46.138Z,8.10
2023-04-07T05:55:22.808Z,8.10
2023-04-07T05:57:51.667Z,8.10
2023-04-07T06:00:24.207Z,8.20
2023-04-07T06:03:02.458Z,8.10
2023-04-07T06:05:35.266Z,8.20
2023-04-07T06:08:03.544Z,8.20
2023-04-07T06:10:31.811Z,8.10
2023-04-07T06:12:59.765Z,8.20
2023-04-07T06:15:29.685Z,8.20
2023-04-07T06:17:57.676Z,8.30
2023-04-07T06:20:27.690Z,8.20
2023-04-07T06:22:55.855Z,8.20
2023-04-07T06:25:23.882Z,8.30
2023-04-07T06:27:51.932Z,8.30
2023-04-07T06:30:20.141Z,8.30
2023-04-07T06:32:49.742Z,8.20
2023-04-07T06:35:17.755Z,8.20
2023-04-07T06:37:45.997Z,8.30
2023-04-07T06:40:13.997Z,8.30
2023-04-07T06:42:41.959Z,8.40
2023-04-07T06:45:24.031Z,8.40
2023-04-07T06:47:53.345Z,8.40
2023-04-07T06:50:22.323Z,8.40
2023-04-07T06:52:50.303Z,8.50
2023-04-07T06:55:18.412Z,8.40
2023-04-07T06:57:46.377Z,8.40
2023-04-07T07:00:14.981Z,8.50
2023-04-07T07:02:42.993Z,8.60
2023-04-07T07:05:12.744Z,8.70
2023-04-07T07:07:40.763Z,8.70
2023-04-07T07:10:10.631Z,8.80
2023-04-07T07:12:38.598Z,8.90
2023-04-07T07:15:08.044Z,8.90
2023-04-07T07:17:36.032Z,8.90
2023-04-07T07:20:04.423Z,9.00
2023-04-07T07:22:33.745Z,9.10
2023-04-07T07:25:01.795Z,9.10
2023-04-07T07:27:29.760Z,9.10
2023-04-07T07:29:57.752Z,9.00
2023-04-07T07:32:25.922Z,8.90
2023-04-07T07:34:53.904Z,8.90
2023-04-07T07:37:21.893Z,9.00
2023-04-07T07:39:51.215Z,9.00
2023-04-07T07:42:19.451Z,9.10
2023-04-07T07:44:47.520Z,9.10
2023-04-07T07:47:15.575Z,9.20
2023-04-07T07:49:43.537Z,9.20
2023-04-07T07:52:11.848Z,9.20
2023-04-07T07:54:39.806Z,9.30
2023-04-07T07:57:09.208Z,9.20
2023-04-07T07:59:37.230Z,9.20
2023-04-07T08:02:05.450Z,9.30
2023-04-07T08:04:33.457Z,9.30
2023-04-07T08:07:01.488Z,9.40
2023-04-07T08:09:32.048Z,9.50
2023-04-07T08:12:00.136Z,9.40
2023-04-07T08:14:29.450Z,9.40
2023-04-07T08:16:57.530Z,9.40
2023-04-07T08:19:25.518Z,9.40
2023-04-07T08:21:53.432Z,9.40
2023-04-07T08:24:21.377Z,9.30
2023-04-07T08:26:49.353Z,9.10
2023-04-07T08:29:17.342Z,9.10
2023-04-07T08:31:46.665Z,9.10
2023-04-07T08:34:14.967Z,9.10
2023-04-07T08:36:44.019Z,9.00
2023-04-07T08:39:12.160Z,9.10
2023-04-07T08:41:41.340Z,9.00
2023-04-07T08:44:09.629Z,9.00
2023-04-07T08:46:40.310Z,9.00
2023-04-07T08:49:13.797Z,9.10
2023-04-07T08:51:47.250Z,9.30
2023-04-07T08:54:18.825Z,9.30
2023-04-07T08:56:47.023Z,9.30
2023-04-07T08:59:18.254Z,9.30
2023-04-07T09:01:47.499Z,9.30
2023-04-07T09:04:17.780Z,9.30
2023-04-07T09:06:45.878Z,9.30
2023-04-07T09:09:15.372Z,9.30
2023-04-07T09:11:43.537Z,9.30
2023-04-07T09:14:11.585Z,9.50
2023-04-07T09:16:40.056Z,9.50
2023-04-07T09:19:08.130Z,9.60
2023-04-07T09:21:51.252Z,9.50
2023-04-07T09:24:23.290Z,9.60
2023-04-07T09:26:51.336Z,9.70
2023-04-07T09:29:21.174Z,9.70
2023-04-07T09:31:51.902Z,9.80
2023-04-07T09:34:28.190Z,9.70
2023-04-07T09:36:58.244Z,9.90
2023-04-07T09:39:26.616Z,9.90
2023-04-07T09:41:54.982Z,10.00
2023-04-07T09:44:24.064Z,9.80
2023-04-07T09:46:53.227Z,9.80
2023-04-07T09:49:22.175Z,9.70
2023-04-07T09:51:59.777Z,9.60
2023-04-07T09:54:35.828Z,9.50
2023-04-07T09:57:05.056Z,9.50
2023-04-07T09:59:34.369Z,9.40
2023-04-07T10:02:03.019Z,9.30
2023-04-07T10:04:31.193Z,9.50
2023-04-07T10:07:01.060Z,9.50
2023-04-07T10:09:29.862Z,9.50
2023-04-07T10:11:59.719Z,9.60
2023-04-07T10:14:31.061Z,9.70
2023-04-07T10:17:01.509Z,9.70
2023-04-07T10:19:33.162Z,9.80
2023-04-07T10:22:04.137Z,10.20
2023-04-07T10:24:43.553Z,10.40
2023-04-07T10:27:15.612Z,10.50
2023-04-07T10:29:47.397Z,10.20
2023-04-07T10:32:15.732Z,10.20
2023-04-07T10:35:05.151Z,10.10
2023-04-07T10:37:34.578Z,10.10
2023-04-07T10:40:30.789Z,10.20
2023-04-07T10:42:59.293Z,10.20
2023-04-07T10:46:00.395Z,10.30
2023-04-07T10:48:33.195Z,10.40
2023-04-07T10:51:18.239Z,10.40
2023-04-07T11:00:18.433Z,10.30
2023-04-07T11:02:46.842Z,10.40
2023-04-07T11:05:23.441Z,10.40
2023-04-07T11:07:55.100Z,10.40
2023-04-07T11:10:23.318Z,10.40
2023-04-07T11:13:02.218Z,10.40
2023-04-07T11:15:31.712Z,10.60
2023-04-07T11:18:17.921Z,10.70
2023-04-07T11:20:52.634Z,10.90
2023-04-07T11:23:23.059Z,11.00
2023-04-07T11:25:52.549Z,11.10
2023-04-07T11:28:23.404Z,11.20
2023-04-07T11:34:16.886Z,11.10
2023-04-07T11:36:53.529Z,11.20
2023-04-07T11:39:58.770Z,11.00
2023-04-07T11:42:33.987Z,11.00
2023-04-07T11:45:02.003Z,11.00
2023-04-07T11:50:50.737Z,11.00
2023-04-07T11:53:27.098Z,10.90
2023-04-07T11:56:04.392Z,11.00
2023-04-07T11:58:32.522Z,11.00
2023-04-07T12:01:05.057Z,10.90
2023-04-07T12:03:34.196Z,10.80
2023-04-07T12:10:44.542Z,10.90
2023-04-07T12:13:15.162Z,11.00
2023-04-07T12:15:43.592Z,11.30
2023-04-07T12:18:18.242Z,11.30
2023-04-07T12:20:46.235Z,11.40
2023-04-07T12:29:20.967Z,11.40
2023-04-07T12:31:51.063Z,11.60
2023-04-07T12:34:19.713Z,11.60
2023-04-07T12:36:48.225Z,11.70
2023-04-07T12:39:16.739Z,11.70
2023-04-07T12:41:45.687Z,11.60
2023-04-07T12:44:13.684Z,11.60
2023-04-07T12:46:43.213Z,11.50
2023-04-07T12:49:11.251Z,11.50
2023-04-07T12:51:40.196Z,11.20
2023-04-07T12:54:08.641Z,11.20
2023-04-07T12:56:36.647Z,11.30
2023-04-07T12:59:04.947Z,11.20
2023-04-07T13:01:35.155Z,11.10
2023-04-07T13:04:04.699Z,11.00
2023-04-07T13:06:33.550Z,11.10
2023-04-07T13:09:01.492Z,11.10
2023-04-07T13:11:29.476Z,11.00
2023-04-07T13:13:59.220Z,11.10
2023-04-07T13:16:28.751Z,11.20
2023-04-07T13:18:57.185Z,11.20
2023-04-07T13:21:45.146Z,11.10
2023-04-07T13:24:14.502Z,11.10
2023-04-07T13:26:42.479Z,11.20
2023-04-07T13:29:10.446Z,11.20
2023-04-07T13:31:38.570Z,11.20
2023-04-07T13:34:06.514Z,11.10
2023-04-07T13:36:35.803Z,10.90
2023-04-07T13:39:04.194Z,10.80
2023-04-07T13:41:32.111Z,10.70
2023-04-07T13:44:00.756Z,10.60
2023-04-07T13:46:29.530Z,10.50
2023-04-07T13:48:57.767Z,10.50
2023-04-07T13:51:25.712Z,10.40
2023-04-07T13:53:55.112Z,10.30
2023-04-07T13:56:23.512Z,10.30
2023-04-07T13:58:51.812Z,10.20
2023-04-07T14:01:19.848Z,10.30
2023-04-07T14:03:49.549Z,10.40
2023-04-07T14:06:17.902Z,10.50
2023-04-07T14:08:45.866Z,10.50
2023-04-07T14:11:18.392Z,10.60
2023-04-07T14:13:46.875Z,10.60
2023-04-07T14:16:14.982Z,10.80
2023-04-07T14:18:43.173Z,10.90
2023-04-07T14:21:11.197Z,11.10
2023-04-07T14:23:39.268Z,11.30
2023-04-07T14:26:10.364Z,11.40
2023-04-07T14:45:52.081Z,11.50
2023-04-07T14:48:20.051Z,11.40
2023-04-07T14:50:50.197Z,11.40
2023-04-07T14:53:24.500Z,11.40
2023-04-07T14:55:52.410Z,11.50
2023-04-07T14:58:20.349Z,11.40
2023-04-07T15:00:48.344Z,11.30
2023-04-07T15:03:17.961Z,11.40
2023-04-07T15:05:46.310Z,11.50
2023-04-07T15:08:14.239Z,11.60
2023-04-07T15:10:42.233Z,11.60
2023-04-07T15:13:10.224Z,11.70
2023-04-07T15:15:38.172Z,11.60
2023-04-07T15:18:06.154Z,11.80
2023-04-07T15:20:35.566Z,11.80
2023-04-07T15:23:03.542Z,11.70
2023-04-07T15:25:31.529Z,11.80
2023-04-07T15:27:59.524Z,11.70
2023-04-07T15:30:27.454Z,11.70
2023-04-07T15:33:00.336Z,11.60
2023-04-07T15:35:28.613Z,11.50
2023-04-07T15:37:57.897Z,11.50
2023-04-07T15:40:25.940Z,11.50
2023-04-07T15:42:53.938Z,11.30
2023-04-07T15:45:22.160Z,11.10
2023-04-07T15:47:50.225Z,11.00
2023-04-07T15:50:18.260Z,11.00
2023-04-07T15:52:46.262Z,10.80
2023-04-07T15:55:15.586Z,10.70
2023-04-07T15:57:43.580Z,10.80
2023-04-07T16:00:12.112Z,10.80
2023-04-07T16:02:40.210Z,10.80
2023-04-07T16:05:09.012Z,10.80
2023-04-07T16:07:37.249Z,10.70
2023-04-07T16:10:08.069Z,10.70
2023-04-07T16:12:37.914Z,10.70
2023-04-07T16:22:37.757Z,10.60
2023-04-07T16:25:06.939Z,10.60
2023-04-07T16:27:34.908Z,10.60
2023-04-07T16:30:05.104Z,10.50
2023-04-07T16:32:33.240Z,10.60
2023-04-07T16:35:01.280Z,10.60
2023-04-07T16:37:30.254Z,10.50
2023-04-07T16:39:58.470Z,10.50
2023-04-07T16:42:28.466Z,10.50
2023-04-07T16:44:57.646Z,10.40
2023-04-07T16:47:27.226Z,10.40
2023-04-07T16:49:55.266Z,10.30
2023-04-07T16:52:23.903Z,10.30
2023-04-07T16:54:51.921Z,10.30
2023-04-07T16:57:19.907Z,10.30
2023-04-07T16:59:48.374Z,10.30
2023-04-07T17:02:17.053Z,10.20
2023-04-07T17:04:46.608Z,10.20
2023-04-07T17:07:14.694Z,10.20
2023-04-07T17:09:42.662Z,10.00
2023-04-07T17:12:10.683Z,10.00
2023-04-07T17:14:38.683Z,9.90
2023-04-07T17:17:06.641Z,9.80
2023-04-07T17:19:35.558Z,9.80
2023-04-07T17:22:04.866Z,9.80
2023-04-07T17:24:32.821Z,9.70
2023-04-07T17:27:00.873Z,9.70
2023-04-07T17:29:31.218Z,9.70
2023-04-07T17:31:59.182Z,9.60
2023-04-07T17:34:27.166Z,9.60
2023-04-07T17:36:55.091Z,9.60
2023-04-07T17:39:24.433Z,9.50
2023-04-07T17:41:52.390Z,9.50
2023-04-07T17:44:20.358Z,9.50
2023-04-07T17:46:48.396Z,9.50
2023-04-07T17:49:17.036Z,9.50
2023-04-07T17:51:45.743Z,9.40
2023-04-07T17:54:13.785Z,9.40
2023-04-07T17:56:43.109Z,9.40
2023-04-07T17:59:11.099Z,9.40
2023-04-07T18:01:39.566Z,9.30
2023-04-07T18:04:07.766Z,9.30
2023-04-07T18:06:36.810Z,9.20
2023-04-07T18:09:05.560Z,9.20
2023-04-07T18:11:33.788Z,9.20
2023-04-07T18:14:03.164Z,9.20
2023-04-07T18:16:31.172Z,9.10
2023-04-07T18:19:00.434Z,9.20
2023-04-07T18:21:29.407Z,9.20
2023-04-07T18:23:57.348Z,9.10
2023-04-07T18:26:25.308Z,9.10
2023-04-07T18:28:53.322Z,9.10
2023-04-07T18:31:22.735Z,9.00
2023-04-07T18:33:51.009Z,9.00
2023-04-07T18:36:19.189Z,9.00
2023-04-07T18:38:47.307Z,9.00
2023-04-07T18:41:15.355Z,9.00
2023-04-07T18:43:43.338Z,8.90
2023-04-07T18:46:11.466Z,8.80
2023-04-07T18:48:43.964Z,8.90
2023-04-07T18:51:12.568Z,8.80
2023-04-07T18:53:40.626Z,8.80
2023-04-07T18:56:08.599Z,8.70
2023-04-07T18:58:43.568Z,8.70
2023-04-07T19:01:12.125Z,8.70
2023-04-07T19:03:41.897Z,8.70
2023-04-07T19:06:10.367Z,8.70
2023-04-07T19:08:38.321Z,8.70
2023-04-07T19:11:06.398Z,8.70
2023-04-07T19:13:34.353Z,8.80
2023-04-07T19:16:02.918Z,8.70
2023-04-07T19:18:31.822Z,8.70
2023-04-07T19:21:01.497Z,8.70
2023-04-07T19:23:30.408Z,8.80
2023-04-07T19:25:58.522Z,8.80
2023-04-07T19:28:26.599Z,8.80
2023-04-07T19:30:54.855Z,8.80
2023-04-07T19:33:22.785Z,8.80
2023-04-07T19:35:50.810Z,8.80
2023-04-07T19:38:20.393Z,8.80
2023-04-07T19:40:48.466Z,8.90
2023-04-07T19:43:17.375Z,8.80
2023-04-07T19:45:47.650Z,8.80
2023-04-07T19:48:15.665Z,8.80
2023-04-07T19:50:44.050Z,8.80
2023-04-07T19:53:15.825Z,8.80
2023-04-07T19:55:45.259Z,8.80
2023-04-07T19:58:13.726Z,8.80
2023-04-07T20:00:41.824Z,8.90
2023-04-07T20:03:09.930Z,8.90
2023-04-07T20:05:38.331Z,8.80
2023-04-07T20:08:06.368Z,8.90
2023-04-07T20:10:34.372Z,8.90
2023-04-07T20:13:05.866Z,8.80
2023-04-07T20:15:34.405Z,8.90
2023-04-07T20:18:02.754Z,8.90
2023-04-07T20:20:31.139Z,8.90
2023-04-07T20:22:59.078Z,8.90
2023-04-07T20:25:27.037Z,8.90
2023-04-07T20:27:54.968Z,8.90
2023-04-07T20:30:24.319Z,8.90
2023-04-07T20:32:52.334Z,8.90
2023-04-07T20:35:20.537Z,8.80
2023-04-07T20:37:48.475Z,8.80
2023-04-07T20:40:16.945Z,8.90
2023-04-07T20:42:45.910Z,8.90
2023-04-07T20:45:13.905Z,8.80
2023-04-07T20:47:43.234Z,8.90
2023-04-07T20:50:11.679Z,8.90
2023-04-07T20:52:40.309Z,8.90
2023-04-07T20:55:09.333Z,9.00
2023-04-07T20:57:37.365Z,9.00
2023-04-07T21:00:06.345Z,8.90
2023-04-07T21:02:34.754Z,8.90
2023-04-07T21:05:04.692Z,8.80
2023-04-07T21:07:32.625Z,8.80
2023-04-07T21:10:00.932Z,8.80
2023-04-07T21:12:28.826Z,8.80
2023-04-07T21:14:56.738Z,8.90
2023-04-07T21:17:24.776Z,8.80
2023-04-07T21:19:52.720Z,8.80
2023-04-07T21:22:22.044Z,8.70
2023-04-07T21:24:50.022Z,8.70
2023-04-07T21:27:18.310Z,8.70
2023-04-07T21:29:46.279Z,8.70
2023-04-07T21:32:14.300Z,8.60
2023-04-07T21:34:42.342Z,8.70
2023-04-07T21:37:10.287Z,8.70
2023-04-07T21:39:39.587Z,8.60
2023-04-07T21:42:07.573Z,8.70
2023-04-07T21:44:35.552Z,8.70
2023-04-07T21:47:03.521Z,8.60
2023-04-07T21:49:31.844Z,8.60
2023-04-07T21:52:00.120Z,8.60
2023-04-07T21:54:28.064Z,8.60
2023-04-07T21:56:57.342Z,8.50
2023-04-07T21:59:25.576Z,8.60
2023-04-07T22:01:53.687Z,8.60
2023-04-07T22:04:22.872Z,8.50
2023-04-07T22:06:51.001Z,8.50
2023-04-07T22:09:21.922Z,8.50
2023-04-07T22:11:50.642Z,8.50
2023-04-07T22:14:24.780Z,8.50
2023-04-07T22:16:52.955Z,8.50
2023-04-07T22:19:21.517Z,8.50
2023-04-07T22:21:49.541Z,8.50
2023-04-07T22:24:17.522Z,8.50
2023-04-07T22:26:45.561Z,8.50
2023-04-07T22:29:13.534Z,8.60
2023-04-07T22:31:42.868Z,8.60
2023-04-07T22:34:11.308Z,8.60
2023-04-07T22:36:39.306Z,8.60
2023-04-07T22:39:08.338Z,8.60
2023-04-07T22:41:36.327Z,8.50
2023-04-07T22:44:04.558Z,8.50
2023-04-07T22:46:32.568Z,8.50
2023-04-07T22:49:01.864Z,8.50
2023-04-07T22:51:29.949Z,8.50
2023-04-07T22:53:58.153Z,8.50
2023-04-07T22:56:27.140Z,8.40
2023-04-07T22:58:57.410Z,8.50
2023-04-07T23:01:25.511Z,8.40
2023-04-07T23:03:53.651Z,8.40
2023-04-07T23:06:22.993Z,8.40
2023-04-07T23:08:51.444Z,8.40
2023-04-07T23:11:21.013Z,8.40
2023-04-07T23:13:51.246Z,8.40
2023-04-07T23:16:19.292Z,8.40
2023-04-07T23:18:47.400Z,8.40
2023-04-07T23:21:15.518Z,8.40
2023-04-07T23:23:44.902Z,8.40
2023-04-07T23:26:12.867Z,8.40
2023-04-07T23:28:40.906Z,8.40
2023-04-07T23:31:08.915Z,8.40
2023-04-07T23:33:36.854Z,8.40
2023-04-07T23:36:05.308Z,8.40
2023-04-07T23:38:33.288Z,8.40
2023-04-07T23:41:03.148Z,8.40
2023-04-07T23:43:31.126Z,8.40
2023-04-07T23:45:59.123Z,8.40
2023-04-07T23:48:27.219Z,8.40
2023-04-07T23:50:55.966Z,8.30
2023-04-07T23:53:24.006Z,8.40
2023-04-07T23:55:51.976Z,8.30
2023-04-07T23:58:21.321Z,8.30
